KRKP/RKP METAR and TAF weather

Enter ICAO airport designator
Station Type Date Time Source
KRKP METAR 2019/08/26 06:53 UTC NOAA

KRKP 260653Z AUTO 18007KT 8SM FEW016 28/26 A2980 RMK AO2 SLP091 T02830256


Station Type Date Time Source
KRKP Decoded METAR 2019/08/26 06:53 UTC NOAA

Station name not available
Aug 26, 2019 - 02:53 AM EDT / 2019.08.26 0653 UTC
Wind: from the S (180 degrees) at 8 MPH (7 KT):0
Visibility: 8 mile(s):0
Sky conditions: mostly clear
Temperature: 82.9 F (28.3 C)
Dew Point: 78.1 F (25.6 C)
Relative Humidity: 85%
Pressure (altimeter): 29.8 in. Hg (1009 hPa)
ob: KRKP 260653Z AUTO 18007KT 8SM FEW016 28/26 A2980 RMK AO2 SLP091 T02830256
cycle: 7

Station Type Date Time Source
KRKP TAF UTC NOAA

Error!

Example: see airport list